KCZT

Dimmit County Airport

Carrizo Springs, Texas, USA
METAR KCZT 191935Z AUTO 32004KT 10SM OVC008 18/17 A3012 RMK AO2
Observed Flight Rules
Oct-19 @ 19:35 UTC (18 minutes ago) Instrument Flight Rules
Wind Visibility Clouds
320° at 4 knots 10 miles
  • Overcast at 800' AGL
Temperatures Readings
Current 18°C / 64°F
Dewpoint 17°C / 63°F
Humidity 94%
Altimeter 30.12" Hg
Pressure 1020 hPa
Elevation 183
METAR KCZT 191935Z AUTO 32004KT 10SM OVC008 18/17 A3012 RMK AO2
Observed Flight Rules
Oct-19 @ 19:35 UTC
(18 minutes ago)
IFR
Wind Visibility
320° at 4 knots 10 miles
Clouds
  • Overcast at 800' AGL
Temperature Dewpoint
18°C / 64°F 17°C / 63°F
Humidity Altimeter Pressure
94% 30.12" Hg 1020 hPa